Time;durP1;ratioP1;P1;durP2;ratioP2;P2;SDS_P1;SDS_P2;PMS_P1;PMS_P2;Temp;Humidity;BMP_temperature;BMP_pressure;BME280_temperature;BME280_humidity;BME280_pressure;Samples;Min_cycle;Max_cycle;Signal;HPM_P1;HPM_P2
2022/08/19 00:00:46;;;;;;;;;;;26.80;46.20;;;;;;1515916;77;798;-64
2022/08/19 00:02:48;;;;;;;;;;;26.80;46.20;;;;;;1511154;77;774;-64
2022/08/19 00:04:52;;;;;;;;;;;26.80;46.20;;;;;;1511407;77;739;-65
2022/08/19 00:06:53;;;;;;;;;;;26.70;46.10;;;;;;1509802;77;1380;-64
2022/08/19 00:08:56;;;;;;;;;;;26.80;46.10;;;;;;1515986;77;1140;-64
2022/08/19 00:10:57;;;;;;;;;;;26.70;46.10;;;;;;1517332;77;701;-63
2022/08/19 00:12:59;;;;;;;;;;;26.70;46.20;;;;;;1515672;77;791;-64
2022/08/19 00:15:01;;;;;;;;;;;26.70;46.20;;;;;;1514290;77;765;-64
2022/08/19 00:17:03;;;;;;;;;;;26.70;46.20;;;;;;1516505;77;647;-64
2022/08/19 00:19:05;;;;;;;;;;;26.80;46.20;;;;;;1513874;77;1931;-65
2022/08/19 00:21:09;;;;;;;;;;;26.70;46.10;;;;;;1517603;77;780;-64
2022/08/19 00:23:11;;;;;;;;;;;26.80;46.20;;;;;;1517287;77;806;-63
2022/08/19 00:25:13;;;;;;;;;;;26.80;46.20;;;;;;1516814;77;830;-63
2022/08/19 00:27:16;;;;;;;;;;;26.80;46.20;;;;;;1515678;77;734;-63
2022/08/19 00:29:18;;;;;;;;;;;26.80;46.10;;;;;;1513273;77;1175;-64
2022/08/19 00:31:20;;;;;;;;;;;26.80;46.20;;;;;;1513620;77;792;-64
2022/08/19 00:33:22;;;;;;;;;;;26.80;46.20;;;;;;1511946;77;773;-65
2022/08/19 00:35:27;;;;;;;;;;;26.70;46.10;;;;;;1509518;77;786;-64
2022/08/19 00:37:28;;;;;;;;;;;26.80;46.10;;;;;;1509092;77;1948;-64
2022/08/19 00:39:30;;;;;;;;;;;26.80;46.10;;;;;;1516605;77;1419;-61
2022/08/19 00:41:32;;;;;;;;;;;26.80;46.10;;;;;;1521110;77;809;-64
2022/08/19 00:43:34;;;;;;;;;;;26.80;46.10;;;;;;1511638;77;720;-62
2022/08/19 00:45:36;;;;;;;;;;;26.80;46.10;;;;;;1508517;77;696;-64
2022/08/19 00:47:37;;;;;;;;;;;26.80;46.10;;;;;;1511971;77;1503;-63
2022/08/19 00:49:45;;;;;;;;;;;26.80;46.10;;;;;;1516101;77;1155;-64
2022/08/19 00:51:47;;;;;;;;;;;26.80;46.00;;;;;;1518343;77;791;-62
2022/08/19 00:53:49;;;;;;;;;;;26.80;46.10;;;;;;1520746;77;721;-64
2022/08/19 00:55:51;;;;;;;;;;;26.80;46.10;;;;;;1520202;77;795;-63
2022/08/19 00:57:54;;;;;;;;;;;26.80;46.10;;;;;;1516194;77;1936;-64
2022/08/19 00:59:56;;;;;;;;;;;26.70;46.10;;;;;;1514671;77;1166;-63
2022/08/19 01:01:58;;;;;;;;;;;26.80;46.00;;;;;;1520361;77;754;-63
2022/08/19 01:04:00;;;;;;;;;;;26.70;46.10;;;;;;1511963;77;749;-64
2022/08/19 01:06:02;;;;;;;;;;;26.80;46.10;;;;;;1517576;77;713;-64
2022/08/19 01:08:04;;;;;;;;;;;26.70;46.10;;;;;;1517631;77;817;-64
2022/08/19 01:10:08;;;;;;;;;;;26.70;46.00;;;;;;1519257;77;1138;-64
2022/08/19 01:12:10;;;;;;;;;;;26.70;46.00;;;;;;1515641;77;1803;-64
2022/08/19 01:14:12;;;;;;;;;;;26.70;46.00;;;;;;1512654;77;686;-64
2022/08/19 01:16:14;;;;;;;;;;;26.70;46.10;;;;;;1512161;77;810;-65
2022/08/19 01:18:16;;;;;;;;;;;26.80;46.00;;;;;;1511355;77;1937;-65
2022/08/19 01:20:19;;;;;;;;;;;26.70;46.10;;;;;;1518025;77;1128;-64
2022/08/19 01:22:26;;;;;;;;;;;26.80;46.00;;;;;;1513747;77;804;-64
2022/08/19 01:24:28;;;;;;;;;;;26.80;46.00;;;;;;1513593;77;796;-64
2022/08/19 01:26:30;;;;;;;;;;;26.80;46.00;;;;;;1512579;77;798;-65
2022/08/19 01:28:31;;;;;;;;;;;26.70;46.00;;;;;;1514076;77;790;-64
2022/08/19 01:30:34;;;;;;;;;;;26.80;46.00;;;;;;1511126;77;1116;-66
2022/08/19 01:32:36;;;;;;;;;;;26.70;46.00;;;;;;1512547;77;817;-64
2022/08/19 01:34:38;;;;;;;;;;;26.70;46.00;;;;;;1520189;77;774;-64
2022/08/19 01:36:41;;;;;;;;;;;26.70;46.00;;;;;;1515681;77;631;-65
2022/08/19 01:38:44;;;;;;;;;;;26.70;46.00;;;;;;1518866;77;1915;-65
2022/08/19 01:40:46;;;;;;;;;;;26.70;46.00;;;;;;1520205;77;722;-65
2022/08/19 01:42:48;;;;;;;;;;;26.70;46.00;;;;;;1516536;77;780;-64
2022/08/19 01:44:50;;;;;;;;;;;26.80;46.00;;;;;;1513334;77;1549;-65
2022/08/19 01:46:53;;;;;;;;;;;26.70;46.00;;;;;;1521377;77;733;-65
2022/08/19 01:48:55;;;;;;;;;;;26.70;45.90;;;;;;1516308;77;1155;-64
2022/08/19 01:50:56;;;;;;;;;;;26.70;45.90;;;;;;1516786;77;799;-63
2022/08/19 01:52:59;;;;;;;;;;;26.70;46.00;;;;;;1518980;77;722;-64
2022/08/19 01:55:01;;;;;;;;;;;26.80;46.00;;;;;;1518206;77;791;-63
2022/08/19 01:57:07;;;;;;;;;;;26.70;46.00;;;;;;1518578;77;727;-63
2022/08/19 01:59:11;;;;;;;;;;;26.70;46.00;;;;;;1511642;77;1937;-63
2022/08/19 02:01:13;;;;;;;;;;;26.70;46.00;;;;;;1521030;77;785;-64
2022/08/19 02:03:15;;;;;;;;;;;26.70;46.00;;;;;;1522475;77;775;-65
2022/08/19 02:05:18;;;;;;;;;;;26.70;46.00;;;;;;1520608;77;768;-64
2022/08/19 02:07:24;;;;;;;;;;;26.70;46.00;;;;;;1520940;77;740;-64
2022/08/19 02:09:24;;;;;;;;;;;26.80;46.00;;;;;;1531129;77;1268;-64
2022/08/19 02:11:27;;;;;;;;;;;26.70;46.00;;;;;;1532466;77;769;-64
2022/08/19 02:13:29;;;;;;;;;;;26.80;46.00;;;;;;1536554;77;837;-63
2022/08/19 02:15:31;;;;;;;;;;;26.70;46.00;;;;;;1508563;77;713;-63
2022/08/19 02:17:33;;;;;;;;;;;26.70;46.00;;;;;;1518998;77;689;-63
2022/08/19 02:19:35;;;;;;;;;;;26.70;46.00;;;;;;1516529;77;1933;-63
2022/08/19 02:21:37;;;;;;;;;;;26.70;45.90;;;;;;1522130;77;795;-63
2022/08/19 02:23:39;;;;;;;;;;;26.70;45.90;;;;;;1528262;77;715;-63
2022/08/19 02:25:41;;;;;;;;;;;26.70;46.00;;;;;;1528660;77;601;-64
2022/08/19 02:27:43;;;;;;;;;;;26.70;46.00;;;;;;1529823;77;766;-64
2022/08/19 02:29:46;;;;;;;;;;;26.70;46.00;;;;;;1526514;77;1135;-64
2022/08/19 02:31:48;;;;;;;;;;;26.70;45.90;;;;;;1522924;77;731;-64
2022/08/19 02:33:50;;;;;;;;;;;26.70;46.00;;;;;;1521681;77;729;-64
2022/08/19 02:35:52;;;;;;;;;;;26.70;46.00;;;;;;1515175;77;822;-64
2022/08/19 02:40:13;;;;;;;;;;;26.70;46.00;;;;;;1558590;71;227790;-70
2022/08/19 02:42:15;;;;;;;;;;;26.70;46.00;;;;;;1601174;73;714;-70
2022/08/19 02:44:17;;;;;;;;;;;26.70;46.00;;;;;;1586824;73;755;-70
2022/08/19 02:46:20;;;;;;;;;;;26.70;46.00;;;;;;1592268;73;605;-71
2022/08/19 02:48:23;;;;;;;;;;;26.70;46.00;;;;;;1589852;73;736;-70
2022/08/19 02:50:25;;;;;;;;;;;26.70;46.00;;;;;;1570711;74;1194;-70
2022/08/19 02:52:27;;;;;;;;;;;26.70;46.00;;;;;;1557811;75;820;-71
2022/08/19 02:54:29;;;;;;;;;;;26.70;46.00;;;;;;1577636;74;881;-71
2022/08/19 02:56:31;;;;;;;;;;;26.70;46.00;;;;;;1555907;75;752;-72
2022/08/19 02:58:33;;;;;;;;;;;26.70;46.00;;;;;;1556391;75;1939;-71
2022/08/19 03:00:35;;;;;;;;;;;26.70;46.00;;;;;;1571217;74;1111;-71
2022/08/19 03:02:37;;;;;;;;;;;26.70;46.00;;;;;;1570967;75;707;-69
2022/08/19 03:04:39;;;;;;;;;;;26.70;46.00;;;;;;1526996;77;735;-71
2022/08/19 03:06:41;;;;;;;;;;;26.70;46.00;;;;;;1522259;77;732;-69
2022/08/19 03:08:44;;;;;;;;;;;26.70;46.00;;;;;;1531651;76;709;-69
2022/08/19 03:10:46;;;;;;;;;;;26.70;46.00;;;;;;1523889;77;1107;-68
2022/08/19 03:12:48;;;;;;;;;;;26.70;46.00;;;;;;1549824;75;767;-68
2022/08/19 03:14:51;;;;;;;;;;;26.70;46.10;;;;;;1530315;76;792;-68
2022/08/19 03:16:53;;;;;;;;;;;26.70;46.10;;;;;;1530464;76;773;-69
2022/08/19 03:18:56;;;;;;;;;;;26.70;46.00;;;;;;1523597;76;1936;-70
2022/08/19 03:20:58;;;;;;;;;;;26.70;46.10;;;;;;1564238;75;1038;-70
2022/08/19 03:22:59;;;;;;;;;;;26.70;46.10;;;;;;1520867;76;804;-71
2022/08/19 03:25:01;;;;;;;;;;;26.70;46.10;;;;;;1523687;77;741;-71
2022/08/19 03:27:04;;;;;;;;;;;26.70;46.00;;;;;;1523874;77;717;-71
2022/08/19 03:29:06;;;;;;;;;;;26.70;46.10;;;;;;1532979;77;1187;-70
2022/08/19 03:31:10;;;;;;;;;;;26.70;46.10;;;;;;1536175;77;784;-71
2022/08/19 03:33:12;;;;;;;;;;;26.70;46.10;;;;;;1522472;77;935;-70
2022/08/19 03:35:14;;;;;;;;;;;26.70;46.10;;;;;;1521238;77;756;-71
2022/08/19 03:37:16;;;;;;;;;;;26.70;46.10;;;;;;1530311;77;1525;-70
2022/08/19 03:39:17;;;;;;;;;;;26.70;46.10;;;;;;1536141;76;1936;-71
2022/08/19 03:41:20;;;;;;;;;;;26.70;46.10;;;;;;1525179;76;802;-71
2022/08/19 03:43:22;;;;;;;;;;;26.70;46.20;;;;;;1516480;77;766;-70
2022/08/19 03:45:24;;;;;;;;;;;26.70;46.20;;;;;;1519478;77;854;-70
2022/08/19 03:47:26;;;;;;;;;;;26.70;46.20;;;;;;1520938;77;722;-71
2022/08/19 03:49:29;;;;;;;;;;;26.70;46.10;;;;;;1553990;76;1086;-71
2022/08/19 03:51:32;;;;;;;;;;;26.70;46.20;;;;;;1524065;76;718;-71
2022/08/19 03:53:34;;;;;;;;;;;26.70;46.20;;;;;;1520565;77;690;-70
2022/08/19 03:55:40;;;;;;;;;;;26.70;46.10;;;;;;1564329;74;870;-71
2022/08/19 03:57:42;;;;;;;;;;;26.70;46.10;;;;;;1589519;74;765;-71
2022/08/19 03:59:44;;;;;;;;;;;26.70;46.20;;;;;;1571515;75;1943;-70
2022/08/19 04:01:46;;;;;;;;;;;26.70;46.20;;;;;;1561450;75;801;-71
2022/08/19 04:03:48;;;;;;;;;;;26.70;46.10;;;;;;1560665;75;795;-70
2022/08/19 04:05:50;;;;;;;;;;;26.60;46.20;;;;;;1501911;77;658;-71
2022/08/19 04:07:52;;;;;;;;;;;26.70;46.10;;;;;;1524563;77;783;-71
2022/08/19 04:09:54;;;;;;;;;;;26.70;46.10;;;;;;1514554;77;1141;-70
2022/08/19 04:11:56;;;;;;;;;;;26.70;46.10;;;;;;1517847;77;947;-71
2022/08/19 04:13:59;;;;;;;;;;;26.70;46.20;;;;;;1538286;75;802;-70
2022/08/19 04:16:01;;;;;;;;;;;26.70;46.10;;;;;;1533380;77;769;-72
2022/08/19 04:18:02;;;;;;;;;;;26.70;46.10;;;;;;1545742;76;728;-71
2022/08/19 04:20:04;;;;;;;;;;;26.70;46.20;;;;;;1565631;75;1944;-71
2022/08/19 04:22:06;;;;;;;;;;;26.70;46.20;;;;;;1570085;75;758;-71
2022/08/19 04:24:09;;;;;;;;;;;26.70;46.20;;;;;;1570097;74;885;-72
2022/08/19 04:26:19;;;;;;;;;;;26.70;46.20;;;;;;1564342;75;805;-71
2022/08/19 04:28:21;;;;;;;;;;;26.60;46.10;;;;;;1575930;74;2010;-71
2022/08/19 04:30:23;;;;;;;;;;;26.60;46.20;;;;;;1566003;75;1153;-72
2022/08/19 04:32:24;;;;;;;;;;;26.70;46.10;;;;;;1560682;75;1562;-71
2022/08/19 04:34:28;;;;;;;;;;;26.70;46.20;;;;;;1567373;74;731;-71
2022/08/19 04:36:30;;;;;;;;;;;26.60;46.10;;;;;;1562635;75;706;-71
2022/08/19 04:38:32;;;;;;;;;;;26.60;46.10;;;;;;1568545;74;709;-71
2022/08/19 04:42:50;;;;;;;;;;;26.70;46.20;;;;;;1518498;75;1123;-71
2022/08/19 04:44:52;;;;;;;;;;;26.60;46.20;;;;;;1569138;75;812;-72
2022/08/19 04:46:54;;;;;;;;;;;26.70;46.20;;;;;;1571996;75;775;-71
2022/08/19 04:48:56;;;;;;;;;;;26.70;46.20;;;;;;1566143;75;720;-71
2022/08/19 04:50:58;;;;;;;;;;;26.70;46.20;;;;;;1574240;74;1088;-71
2022/08/19 04:53:00;;;;;;;;;;;26.70;46.30;;;;;;1573922;74;791;-73
2022/08/19 04:55:02;;;;;;;;;;;26.60;46.30;;;;;;1561721;75;751;-73
2022/08/19 04:57:06;;;;;;;;;;;26.70;46.20;;;;;;1577705;75;827;-73
2022/08/19 04:59:08;;;;;;;;;;;26.70;46.30;;;;;;1574459;74;1918;-70
2022/08/19 05:01:12;;;;;;;;;;;26.70;46.20;;;;;;1567646;75;798;-70
2022/08/19 05:03:15;;;;;;;;;;;26.70;46.20;;;;;;1561769;74;765;-70
2022/08/19 05:05:17;;;;;;;;;;;26.70;46.30;;;;;;1563630;75;791;-71
2022/08/19 05:07:19;;;;;;;;;;;26.60;46.30;;;;;;1579913;74;777;-71
2022/08/19 05:09:21;;;;;;;;;;;26.70;46.20;;;;;;1563348;75;1117;-71
2022/08/19 05:11:24;;;;;;;;;;;26.70;46.30;;;;;;1560396;74;804;-72
2022/08/19 05:13:26;;;;;;;;;;;26.70;46.20;;;;;;1560985;75;787;-72
2022/08/19 05:15:28;;;;;;;;;;;26.70;46.30;;;;;;1560619;75;856;-72
2022/08/19 05:17:30;;;;;;;;;;;26.70;46.20;;;;;;1571408;75;793;-72
2022/08/19 05:24:12;;;;;;;;;;;26.70;46.20;;;;;;1556569;75;1651;-70
2022/08/19 05:26:14;;;;;;;;;;;26.70;46.20;;;;;;1564908;75;744;-71
2022/08/19 05:28:16;;;;;;;;;;;26.70;46.30;;;;;;1567701;75;777;-71
2022/08/19 05:30:18;;;;;;;;;;;26.70;46.20;;;;;;1581158;74;1158;-71
2022/08/19 05:32:21;;;;;;;;;;;26.70;46.30;;;;;;1559810;75;725;-69
2022/08/19 05:34:28;;;;;;;;;;;26.70;46.30;;;;;;1570511;75;801;-71
2022/08/19 05:36:27;;;;;;;;;;;26.70;46.30;;;;;;1565115;74;1366;-70
2022/08/19 05:38:29;;;;;;;;;;;26.70;46.20;;;;;;1574602;75;748;-71
2022/08/19 05:40:32;;;;;;;;;;;26.70;46.20;;;;;;1555720;75;1924;-71
2022/08/19 05:42:34;;;;;;;;;;;26.70;46.20;;;;;;1570847;75;793;-71
2022/08/19 05:44:38;;;;;;;;;;;26.70;46.30;;;;;;1563590;75;773;-71
2022/08/19 05:46:39;;;;;;;;;;;26.70;46.20;;;;;;1578714;75;705;-71
2022/08/19 05:48:41;;;;;;;;;;;26.70;46.30;;;;;;1564067;75;754;-72
2022/08/19 05:50:45;;;;;;;;;;;26.70;46.30;;;;;;1581762;73;1221;-72
2022/08/19 05:52:46;;;;;;;;;;;26.70;46.20;;;;;;1559968;74;793;-72
2022/08/19 05:54:50;;;;;;;;;;;26.70;46.20;;;;;;1558547;75;826;-71
2022/08/19 05:56:52;;;;;;;;;;;26.70;46.20;;;;;;1563348;74;2074;-71
2022/08/19 05:58:54;;;;;;;;;;;26.70;46.20;;;;;;1574701;74;755;-72
2022/08/19 06:00:56;;;;;;;;;;;26.70;46.20;;;;;;1559584;75;1956;-72
2022/08/19 06:02:59;;;;;;;;;;;26.70;46.20;;;;;;1555138;75;747;-71
2022/08/19 06:05:02;;;;;;;;;;;26.70;46.20;;;;;;1565835;74;758;-71
2022/08/19 06:07:04;;;;;;;;;;;26.70;46.20;;;;;;1562067;74;738;-70
2022/08/19 06:09:07;;;;;;;;;;;26.70;46.20;;;;;;1568793;74;1179;-70
2022/08/19 06:11:13;;;;;;;;;;;26.70;46.20;;;;;;1574940;74;722;-72
2022/08/19 06:13:14;;;;;;;;;;;26.70;46.20;;;;;;1574562;74;702;-73
2022/08/19 06:15:16;;;;;;;;;;;26.70;46.20;;;;;;1524086;76;734;-73
2022/08/19 06:17:18;;;;;;;;;;;26.70;46.20;;;;;;1582700;74;742;-72
2022/08/19 06:19:21;;;;;;;;;;;26.60;46.20;;;;;;1572680;74;1941;-70
2022/08/19 06:21:24;;;;;;;;;;;26.60;46.20;;;;;;1575130;74;822;-71
2022/08/19 06:23:26;;;;;;;;;;;26.70;46.20;;;;;;1579436;74;758;-71
2022/08/19 06:25:27;;;;;;;;;;;26.70;46.20;;;;;;1560550;74;1577;-70
2022/08/19 06:27:31;;;;;;;;;;;26.60;46.20;;;;;;1568332;74;746;-72
2022/08/19 06:29:33;;;;;;;;;;;26.70;46.30;;;;;;1581074;73;1103;-72
2022/08/19 06:31:36;;;;;;;;;;;26.70;46.30;;;;;;1568850;74;712;-72
2022/08/19 06:33:39;;;;;;;;;;;26.60;46.30;;;;;;1570613;74;693;-72
2022/08/19 06:35:41;;;;;;;;;;;26.70;46.30;;;;;;1557991;74;735;-75
2022/08/19 06:37:44;;;;;;;;;;;26.70;46.20;;;;;;1579251;74;961;-72
2022/08/19 06:39:45;;;;;;;;;;;26.70;46.20;;;;;;1564981;73;1935;-74
2022/08/19 06:41:48;;;;;;;;;;;26.70;46.30;;;;;;1557345;74;767;-73
2022/08/19 06:43:50;;;;;;;;;;;26.70;46.30;;;;;;1571655;74;625;-72
2022/08/19 06:45:52;;;;;;;;;;;26.70;46.30;;;;;;1576972;74;782;-73
2022/08/19 06:47:55;;;;;;;;;;;26.70;46.30;;;;;;1565327;74;708;-73
2022/08/19 06:50:01;;;;;;;;;;;26.60;46.40;;;;;;1574596;73;1149;-73
2022/08/19 06:52:01;;;;;;;;;;;26.70;46.40;;;;;;1577347;74;1488;-74
2022/08/19 06:54:03;;;;;;;;;;;26.60;46.40;;;;;;1578031;74;666;-73
2022/08/19 06:56:05;;;;;;;;;;;26.60;46.40;;;;;;1568650;74;754;-73
2022/08/19 06:58:06;;;;;;;;;;;26.60;46.40;;;;;;1561072;74;745;-73
2022/08/19 07:00:16;;;;;;;;;;;26.50;46.50;;;;;;1554928;74;1951;-73
2022/08/19 07:02:15;;;;;;;;;;;26.50;46.50;;;;;;1559850;74;1189;-73
2022/08/19 07:04:18;;;;;;;;;;;26.50;46.50;;;;;;1571421;74;788;-73
2022/08/19 07:06:20;;;;;;;;;;;26.60;46.50;;;;;;1569832;74;737;-73
2022/08/19 07:08:22;;;;;;;;;;;26.50;46.60;;;;;;1582690;74;671;-73
2022/08/19 07:10:25;;;;;;;;;;;26.60;46.60;;;;;;1584247;73;1129;-73
2022/08/19 07:12:27;;;;;;;;;;;26.50;46.60;;;;;;1576121;74;704;-73
2022/08/19 07:14:29;;;;;;;;;;;26.60;46.70;;;;;;1572954;74;713;-74
2022/08/19 07:16:31;;;;;;;;;;;26.60;46.70;;;;;;1584833;74;676;-74
2022/08/19 07:18:33;;;;;;;;;;;26.50;46.80;;;;;;1587219;74;740;-73
2022/08/19 07:20:36;;;;;;;;;;;26.50;46.80;;;;;;1573648;74;1942;-73
2022/08/19 07:22:39;;;;;;;;;;;26.50;46.80;;;;;;1588628;74;1537;-74
2022/08/19 07:24:40;;;;;;;;;;;26.50;46.80;;;;;;1573476;74;803;-72
2022/08/19 07:26:43;;;;;;;;;;;26.50;46.80;;;;;;1580495;74;773;-71
2022/08/19 07:28:45;;;;;;;;;;;26.40;46.80;;;;;;1574879;74;712;-71
2022/08/19 07:30:48;;;;;;;;;;;26.40;46.90;;;;;;1582885;74;1160;-74
2022/08/19 07:32:52;;;;;;;;;;;26.50;47.00;;;;;;1583050;74;669;-74
2022/08/19 07:34:53;;;;;;;;;;;26.50;46.90;;;;;;1566207;74;731;-74
2022/08/19 07:36:55;;;;;;;;;;;26.40;46.90;;;;;;1562967;74;621;-73
2022/08/19 07:38:57;;;;;;;;;;;26.50;47.00;;;;;;1571384;74;769;-73
2022/08/19 07:40:59;;;;;;;;;;;26.50;47.10;;;;;;1574454;74;1945;-73
2022/08/19 07:43:01;;;;;;;;;;;26.40;47.00;;;;;;1576631;74;779;-73
2022/08/19 07:45:03;;;;;;;;;;;26.40;47.10;;;;;;1579234;74;801;-74
2022/08/19 07:47:05;;;;;;;;;;;26.40;47.10;;;;;;1589344;74;763;-73
2022/08/19 07:49:07;;;;;;;;;;;26.40;47.10;;;;;;1586049;74;1159;-73
2022/08/19 07:51:09;;;;;;;;;;;26.40;47.20;;;;;;1587737;73;838;-74
2022/08/19 07:53:12;;;;;;;;;;;26.40;47.30;;;;;;1568963;74;778;-74
2022/08/19 07:55:13;;;;;;;;;;;26.50;47.20;;;;;;1587070;74;765;-74
2022/08/19 07:57:15;;;;;;;;;;;26.50;47.30;;;;;;1563144;74;764;-73
2022/08/19 07:59:18;;;;;;;;;;;26.40;47.30;;;;;;1585080;73;1180;-75
2022/08/19 08:01:22;;;;;;;;;;;26.40;47.40;;;;;;1582807;74;1933;-72
2022/08/19 08:09:10;;;;;;;;;;;26.40;47.30;;;;;;1585344;74;685;-74
2022/08/19 08:10:07;;;;;;;;;;;26.40;47.30;;;;;;1571331;73;1738;-73
2022/08/19 08:12:11;;;;;;;;;;;26.40;47.40;;;;;;1563672;74;795;-73
2022/08/19 08:14:13;;;;;;;;;;;26.40;47.40;;;;;;1568323;74;728;-73
2022/08/19 08:16:14;;;;;;;;;;;26.50;47.40;;;;;;1581682;74;815;-75
2022/08/19 08:18:17;;;;;;;;;;;26.40;47.40;;;;;;1579516;74;1600;-73
2022/08/19 08:20:19;;;;;;;;;;;26.40;47.50;;;;;;1581667;74;1929;-75
2022/08/19 08:24:41;;;;;;;;;;;26.40;47.60;;;;;;1558988;74;1640;-73
2022/08/19 08:26:43;;;;;;;;;;;26.40;47.60;;;;;;1563362;74;647;-73
2022/08/19 08:28:47;;;;;;;;;;;26.40;47.60;;;;;;1569723;74;831;-73
2022/08/19 08:30:49;;;;;;;;;;;26.40;47.60;;;;;;1576255;73;1572;-74
2022/08/19 08:32:51;;;;;;;;;;;26.40;47.60;;;;;;1569319;74;704;-73
2022/08/19 08:34:53;;;;;;;;;;;26.40;47.60;;;;;;1583032;74;710;-73
2022/08/19 08:36:55;;;;;;;;;;;26.50;47.60;;;;;;1589204;74;764;-73
2022/08/19 08:38:57;;;;;;;;;;;26.40;47.60;;;;;;1588352;74;696;-74
2022/08/19 08:41:06;;;;;;;;;;;26.50;47.70;;;;;;1576421;71;226126;-65
2022/08/19 08:43:05;;;;;;;;;;;26.40;47.70;;;;;;1609286;72;1720;-65
2022/08/19 08:45:12;;;;;;;;;;;26.30;47.70;;;;;;1601975;74;731;-65
2022/08/19 08:47:13;;;;;;;;;;;26.40;47.70;;;;;;1598677;74;1645;-65
2022/08/19 08:49:35;;;;;;;;;;;26.30;47.70;;;;;;1600824;74;939;-65
2022/08/19 08:51:39;;;;;;;;;;;26.40;47.70;;;;;;1583090;73;1174;-66
2022/08/19 08:53:41;;;;;;;;;;;26.30;47.70;;;;;;1579910;74;1701;-65
2022/08/19 08:55:43;;;;;;;;;;;26.40;47.80;;;;;;1579020;74;734;-65
2022/08/19 08:57:46;;;;;;;;;;;26.40;47.80;;;;;;1576495;74;724;-65
2022/08/19 08:59:51;;;;;;;;;;;26.30;47.80;;;;;;1572145;74;1815;-65
2022/08/19 09:01:53;;;;;;;;;;;26.40;47.80;;;;;;1565798;74;1924;-65
2022/08/19 09:03:55;;;;;;;;;;;26.30;47.80;;;;;;1579021;74;779;-65
2022/08/19 09:06:05;;;;;;;;;;;26.30;47.80;;;;;;1562472;74;701;-65
2022/08/19 09:08:11;;;;;;;;;;;26.30;47.80;;;;;;1595960;73;709;-65
2022/08/19 09:10:23;;;;;;;;;;;26.30;47.90;;;;;;1573994;73;778;-65
2022/08/19 09:12:30;;;;;;;;;;;26.30;47.80;;;;;;1587417;73;924;-65
2022/08/19 09:14:37;;;;;;;;;;;26.30;47.90;;;;;;1589903;73;1972;-65
2022/08/19 09:16:40;;;;;;;;;;;26.30;47.90;;;;;;1592200;73;911;-66
2022/08/19 09:18:43;;;;;;;;;;;26.20;47.90;;;;;;1602357;73;732;-65
2022/08/19 09:20:46;;;;;;;;;;;26.30;48.00;;;;;;1579823;73;1936;-65
2022/08/19 09:22:49;;;;;;;;;;;26.30;48.00;;;;;;1564553;73;839;-66
2022/08/19 09:24:55;;;;;;;;;;;26.20;48.00;;;;;;1574555;73;767;-65
2022/08/19 09:26:54;;;;;;;;;;;26.30;48.10;;;;;;1572474;73;1280;-65
2022/08/19 09:28:57;;;;;;;;;;;26.30;48.10;;;;;;1575175;73;783;-65
2022/08/19 09:31:00;;;;;;;;;;;26.20;48.10;;;;;;1593532;72;1139;-65
2022/08/19 09:33:02;;;;;;;;;;;26.30;48.10;;;;;;1588824;73;812;-65
2022/08/19 09:35:06;;;;;;;;;;;26.20;48.20;;;;;;1600662;73;799;-66
2022/08/19 09:37:08;;;;;;;;;;;26.20;48.20;;;;;;1583383;73;1797;-69
2022/08/19 09:39:09;;;;;;;;;;;26.30;48.20;;;;;;1589731;73;731;-65
2022/08/19 09:41:15;;;;;;;;;;;26.20;48.20;;;;;;1590164;73;1927;-66
2022/08/19 09:43:17;;;;;;;;;;;26.20;48.20;;;;;;1589102;73;722;-65
2022/08/19 09:45:21;;;;;;;;;;;26.20;48.30;;;;;;1582050;73;785;-66
2022/08/19 09:47:23;;;;;;;;;;;26.30;48.30;;;;;;1587643;73;803;-66
2022/08/19 09:49:25;;;;;;;;;;;26.30;48.30;;;;;;1584687;73;748;-65
2022/08/19 09:51:28;;;;;;;;;;;26.30;48.30;;;;;;1581813;73;1150;-65
2022/08/19 09:53:30;;;;;;;;;;;26.30;48.40;;;;;;1595235;73;739;-65
2022/08/19 09:55:31;;;;;;;;;;;26.20;48.40;;;;;;1573947;73;689;-64
2022/08/19 09:57:33;;;;;;;;;;;26.20;48.40;;;;;;1587478;73;781;-65
2022/08/19 09:59:35;;;;;;;;;;;26.20;48.40;;;;;;1576792;73;804;-66
2022/08/19 10:01:37;;;;;;;;;;;26.20;48.40;;;;;;1579737;73;1937;-65
2022/08/19 10:03:39;;;;;;;;;;;26.20;48.40;;;;;;1581088;73;832;-65
2022/08/19 10:05:50;;;;;;;;;;;26.30;48.40;;;;;;1578917;73;721;-65
2022/08/19 10:07:52;;;;;;;;;;;26.20;48.50;;;;;;1586679;73;623;-65
2022/08/19 10:09:54;;;;;;;;;;;26.20;48.50;;;;;;1583308;73;1517;-65
2022/08/19 10:11:56;;;;;;;;;;;26.20;48.50;;;;;;1594618;73;1064;-66
2022/08/19 10:13:58;;;;;;;;;;;26.20;48.60;;;;;;1581092;73;731;-65
2022/08/19 10:16:05;;;;;;;;;;;26.20;48.60;;;;;;1572562;73;733;-65
2022/08/19 10:18:07;;;;;;;;;;;26.20;48.50;;;;;;1581392;73;1865;-65
2022/08/19 10:20:09;;;;;;;;;;;26.20;48.60;;;;;;1588787;73;776;-65
2022/08/19 10:22:13;;;;;;;;;;;26.20;48.60;;;;;;1589053;73;1953;-65
2022/08/19 10:24:15;;;;;;;;;;;26.20;48.60;;;;;;1584273;73;2038;-66
2022/08/19 10:26:18;;;;;;;;;;;26.20;48.60;;;;;;1588208;73;894;-65
2022/08/19 10:28:20;;;;;;;;;;;26.20;48.70;;;;;;1584971;73;1807;-65
2022/08/19 10:30:22;;;;;;;;;;;26.20;48.70;;;;;;1589696;73;1117;-65
2022/08/19 10:32:25;;;;;;;;;;;26.30;48.70;;;;;;1587425;73;777;-65
2022/08/19 10:34:27;;;;;;;;;;;26.20;48.70;;;;;;1590685;73;856;-65
2022/08/19 10:36:30;;;;;;;;;;;26.30;48.80;;;;;;1579822;73;712;-65
2022/08/19 10:38:33;;;;;;;;;;;26.20;48.70;;;;;;1590562;73;1781;-65
2022/08/19 10:40:35;;;;;;;;;;;26.30;48.70;;;;;;1589894;73;1199;-65
2022/08/19 10:42:37;;;;;;;;;;;26.20;48.70;;;;;;1583007;73;1929;-65
2022/08/19 10:44:39;;;;;;;;;;;26.20;48.80;;;;;;1588127;73;818;-65
2022/08/19 10:46:42;;;;;;;;;;;26.30;48.80;;;;;;1590835;73;942;-66
2022/08/19 10:48:44;;;;;;;;;;;26.20;48.80;;;;;;1591521;73;807;-71
2022/08/19 10:53:08;;;;;;;;;;;26.20;48.80;;;;;;1584067;73;1615;-65
2022/08/19 10:57:32;;;;;;;;;;;26.20;48.90;;;;;;1587344;73;1630;-68
2022/08/19 10:59:35;;;;;;;;;;;26.20;48.90;;;;;;1584192;73;809;-66
2022/08/19 11:01:37;;;;;;;;;;;26.20;48.90;;;;;;1589202;73;1919;-66
2022/08/19 11:03:39;;;;;;;;;;;26.20;48.90;;;;;;1590122;73;783;-66
2022/08/19 11:05:41;;;;;;;;;;;26.20;49.00;;;;;;1582440;73;794;-66
2022/08/19 11:07:44;;;;;;;;;;;26.20;48.90;;;;;;1580885;73;1578;-66
2022/08/19 11:09:46;;;;;;;;;;;26.20;48.90;;;;;;1576988;73;721;-66
2022/08/19 11:11:48;;;;;;;;;;;26.20;48.90;;;;;;1571042;73;1102;-66
2022/08/19 11:13:50;;;;;;;;;;;26.20;48.90;;;;;;1561008;75;824;-65
2022/08/19 11:16:02;;;;;;;;;;;26.20;49.00;;;;;;1582451;73;782;-65
2022/08/19 11:18:05;;;;;;;;;;;26.20;48.90;;;;;;1599752;73;767;-70
2022/08/19 11:20:08;;;;;;;;;;;26.20;49.00;;;;;;1588508;73;757;-65
2022/08/19 11:22:10;;;;;;;;;;;26.20;49.00;;;;;;1583562;72;1930;-65
2022/08/19 11:24:14;;;;;;;;;;;26.20;49.10;;;;;;1574760;73;736;-64
2022/08/19 11:26:17;;;;;;;;;;;26.30;49.00;;;;;;1581979;73;742;-65
2022/08/19 11:28:19;;;;;;;;;;;26.30;49.10;;;;;;1579722;73;697;-65
2022/08/19 11:30:20;;;;;;;;;;;26.30;49.10;;;;;;1576039;73;1139;-65
2022/08/19 11:32:22;;;;;;;;;;;26.30;49.00;;;;;;1575936;73;744;-65
2022/08/19 11:34:27;;;;;;;;;;;26.30;49.10;;;;;;1577970;73;826;-66
2022/08/19 11:36:29;;;;;;;;;;;26.30;49.10;;;;;;1582801;73;921;-66
2022/08/19 11:38:31;;;;;;;;;;;26.40;49.00;;;;;;1579820;73;692;-65
2022/08/19 11:40:33;;;;;;;;;;;26.30;49.10;;;;;;1576043;73;1234;-64
2022/08/19 11:44:54;;;;;;;;;;;26.40;49.10;;;;;;1573979;73;1640;-65
2022/08/19 11:46:56;;;;;;;;;;;26.40;49.10;;;;;;1579427;73;890;-66
2022/08/19 11:48:59;;;;;;;;;;;26.40;49.20;;;;;;1577839;73;801;-64
2022/08/19 11:51:05;;;;;;;;;;;26.40;49.20;;;;;;1574287;73;1145;-64
2022/08/19 11:53:06;;;;;;;;;;;26.40;49.20;;;;;;1578182;73;1621;-65
2022/08/19 11:55:08;;;;;;;;;;;26.40;49.20;;;;;;1582595;73;807;-64
2022/08/19 11:57:10;;;;;;;;;;;26.40;49.20;;;;;;1575568;73;1124;-65
2022/08/19 11:59:12;;;;;;;;;;;26.40;49.20;;;;;;1576880;73;820;-65
2022/08/19 12:01:15;;;;;;;;;;;26.50;49.20;;;;;;1576618;73;1134;-65
2022/08/19 12:03:19;;;;;;;;;;;26.40;49.20;;;;;;1572831;73;1910;-65
2022/08/19 12:05:20;;;;;;;;;;;26.40;49.20;;;;;;1578216;73;688;-64
2022/08/19 12:07:22;;;;;;;;;;;26.40;49.20;;;;;;1582740;73;729;-65
2022/08/19 12:09:24;;;;;;;;;;;26.40;49.20;;;;;;1584320;73;684;-65
2022/08/19 12:11:26;;;;;;;;;;;26.50;49.20;;;;;;1577913;73;1147;-65
2022/08/19 12:13:28;;;;;;;;;;;26.50;49.20;;;;;;1586145;73;783;-64
2022/08/19 12:15:30;;;;;;;;;;;26.40;49.20;;;;;;1582831;73;720;-65
2022/08/19 12:17:32;;;;;;;;;;;26.40;49.20;;;;;;1580713;73;790;-65
2022/08/19 12:19:34;;;;;;;;;;;26.40;49.10;;;;;;1586578;73;799;-66
2022/08/19 12:21:36;;;;;;;;;;;26.50;49.10;;;;;;1593912;73;1926;-65
2022/08/19 12:23:38;;;;;;;;;;;26.40;49.20;;;;;;1573549;73;920;-65
2022/08/19 12:25:49;;;;;;;;;;;26.50;49.10;;;;;;1579232;73;654;-65
2022/08/19 12:27:50;;;;;;;;;;;26.50;49.10;;;;;;1593354;73;1609;-68
2022/08/19 12:29:52;;;;;;;;;;;26.40;49.10;;;;;;1586051;73;783;-67
2022/08/19 12:32:00;;;;;;;;;;;26.50;49.10;;;;;;1581632;73;1095;-66
2022/08/19 12:33:58;;;;;;;;;;;26.50;49.20;;;;;;1591366;73;1694;-68